X  Sluiten METAR luchtvaart weer gegevens      EDVE Braunschweig-Wolfsburg Airport
Temperatuur
14°C Temperatuur
10°C Dauwpunt
77% Vochtigheid



Wind
5 KM/U
3 MPH
1 M/S
3 KTS



100°
O
Huidig weer

Helder Helder
Luchtdruk 1023.92 (hPa) - 30.24 (inHg)
Zicht 6.2 (mijl) - 10 (km)
Vliegveld
Vliegveld code EDVE

Locatie : Braunschweig-Wolfsburg Airport
Afstand: 35 (km)

Metar:
EDVE 110220Z AUTO 10003KT 9999 NCD 14/10 Q1024

Tijd: 11-08-2022 04:20 CEST